sensor_id;sensor_type;location;lat;lon;timestamp;P1;durP1;ratioP1;P2;durP2;ratioP2
22646;SDS011;11490;42.726;23.268;2023-03-07T00:00:02;13.45;;;6.55;;
22646;SDS011;11490;42.726;23.268;2023-03-07T00:02:29;18.95;;;7.15;;
22646;SDS011;11490;42.726;23.268;2023-03-07T00:04:54;10.45;;;5.72;;
22646;SDS011;11490;42.726;23.268;2023-03-07T00:07:19;12.48;;;5.65;;
22646;SDS011;11490;42.726;23.268;2023-03-07T00:09:45;6.05;;;3.83;;
22646;SDS011;11490;42.726;23.268;2023-03-07T00:12:10;8.48;;;6.20;;
22646;SDS011;11490;42.726;23.268;2023-03-07T00:14:35;8.05;;;5.10;;
22646;SDS011;11490;42.726;23.268;2023-03-07T00:17:01;5.15;;;3.80;;
22646;SDS011;11490;42.726;23.268;2023-03-07T00:19:27;6.90;;;4.75;;
22646;SDS011;11490;42.726;23.268;2023-03-07T00:21:52;11.40;;;5.32;;
22646;SDS011;11490;42.726;23.268;2023-03-07T00:24:17;9.35;;;5.30;;
22646;SDS011;11490;42.726;23.268;2023-03-07T00:26:43;8.25;;;5.30;;
22646;SDS011;11490;42.726;23.268;2023-03-07T00:29:09;9.65;;;4.97;;
22646;SDS011;11490;42.726;23.268;2023-03-07T00:31:34;10.93;;;6.00;;
22646;SDS011;11490;42.726;23.268;2023-03-07T00:34:01;9.52;;;5.25;;
22646;SDS011;11490;42.726;23.268;2023-03-07T00:36:27;6.47;;;4.28;;
22646;SDS011;11490;42.726;23.268;2023-03-07T00:38:52;7.53;;;4.25;;
22646;SDS011;11490;42.726;23.268;2023-03-07T00:41:18;5.45;;;4.00;;
22646;SDS011;11490;42.726;23.268;2023-03-07T00:43:46;8.15;;;4.65;;
22646;SDS011;11490;42.726;23.268;2023-03-07T00:46:13;7.35;;;4.95;;
22646;SDS011;11490;42.726;23.268;2023-03-07T00:48:40;10.80;;;4.60;;
22646;SDS011;11490;42.726;23.268;2023-03-07T00:51:06;6.97;;;4.57;;
22646;SDS011;11490;42.726;23.268;2023-03-07T00:53:34;9.63;;;5.20;;
22646;SDS011;11490;42.726;23.268;2023-03-07T00:56:04;6.82;;;4.80;;
22646;SDS011;11490;42.726;23.268;2023-03-07T00:58:48;5.43;;;3.92;;
22646;SDS011;11490;42.726;23.268;2023-03-07T01:01:16;5.13;;;4.25;;
22646;SDS011;11490;42.726;23.268;2023-03-07T01:03:45;5.90;;;4.35;;
22646;SDS011;11490;42.726;23.268;2023-03-07T01:06:14;6.97;;;4.25;;
22646;SDS011;11490;42.726;23.268;2023-03-07T01:08:41;6.90;;;4.47;;
22646;SDS011;11490;42.726;23.268;2023-03-07T01:11:07;5.07;;;3.58;;
22646;SDS011;11490;42.726;23.268;2023-03-07T01:13:34;7.10;;;3.95;;
22646;SDS011;11490;42.726;23.268;2023-03-07T01:16:10;7.10;;;3.90;;
22646;SDS011;11490;42.726;23.268;2023-03-07T01:18:39;6.50;;;4.32;;
22646;SDS011;11490;42.726;23.268;2023-03-07T01:21:12;6.72;;;4.22;;
22646;SDS011;11490;42.726;23.268;2023-03-07T01:23:40;7.88;;;4.82;;
22646;SDS011;11490;42.726;23.268;2023-03-07T01:26:06;6.65;;;3.25;;
22646;SDS011;11490;42.726;23.268;2023-03-07T01:28:35;8.52;;;5.18;;
22646;SDS011;11490;42.726;23.268;2023-03-07T01:31:00;6.07;;;4.50;;
22646;SDS011;11490;42.726;23.268;2023-03-07T01:33:25;9.27;;;5.18;;
22646;SDS011;11490;42.726;23.268;2023-03-07T01:35:51;41.95;;;17.83;;
22646;SDS011;11490;42.726;23.268;2023-03-07T01:38:16;27.75;;;11.98;;
22646;SDS011;11490;42.726;23.268;2023-03-07T01:40:42;12.80;;;7.05;;
22646;SDS011;11490;42.726;23.268;2023-03-07T01:43:24;10.35;;;5.47;;
22646;SDS011;11490;42.726;23.268;2023-03-07T01:46:40;9.15;;;5.32;;
22646;SDS011;11490;42.726;23.268;2023-03-07T01:49:07;18.63;;;9.30;;
22646;SDS011;11490;42.726;23.268;2023-03-07T01:51:40;15.10;;;5.85;;
22646;SDS011;11490;42.726;23.268;2023-03-07T01:54:08;7.68;;;6.38;;
22646;SDS011;11490;42.726;23.268;2023-03-07T01:56:36;14.75;;;7.90;;
22646;SDS011;11490;42.726;23.268;2023-03-07T01:59:03;15.88;;;8.95;;
22646;SDS011;11490;42.726;23.268;2023-03-07T02:01:29;17.90;;;7.53;;
22646;SDS011;11490;42.726;23.268;2023-03-07T02:04:00;17.17;;;9.50;;
22646;SDS011;11490;42.726;23.268;2023-03-07T02:06:26;14.98;;;8.25;;
22646;SDS011;11490;42.726;23.268;2023-03-07T02:08:55;20.00;;;6.50;;
22646;SDS011;11490;42.726;23.268;2023-03-07T02:11:22;9.20;;;5.22;;
22646;SDS011;11490;42.726;23.268;2023-03-07T02:13:48;11.70;;;6.85;;
22646;SDS011;11490;42.726;23.268;2023-03-07T02:16:13;12.40;;;6.13;;
22646;SDS011;11490;42.726;23.268;2023-03-07T02:18:41;8.95;;;5.70;;
22646;SDS011;11490;42.726;23.268;2023-03-07T02:26:37;18.33;;;5.90;;
22646;SDS011;11490;42.726;23.268;2023-03-07T02:29:03;11.80;;;5.45;;
22646;SDS011;11490;42.726;23.268;2023-03-07T02:31:28;11.50;;;6.50;;
22646;SDS011;11490;42.726;23.268;2023-03-07T02:33:53;8.32;;;5.63;;
22646;SDS011;11490;42.726;23.268;2023-03-07T02:36:22;10.43;;;5.97;;
22646;SDS011;11490;42.726;23.268;2023-03-07T02:38:51;12.23;;;6.35;;
22646;SDS011;11490;42.726;23.268;2023-03-07T02:41:20;18.80;;;9.43;;
22646;SDS011;11490;42.726;23.268;2023-03-07T02:43:49;12.32;;;6.25;;
22646;SDS011;11490;42.726;23.268;2023-03-07T02:46:15;10.05;;;6.47;;
22646;SDS011;11490;42.726;23.268;2023-03-07T02:48:40;9.40;;;5.35;;
22646;SDS011;11490;42.726;23.268;2023-03-07T02:51:05;9.32;;;5.55;;
22646;SDS011;11490;42.726;23.268;2023-03-07T02:53:31;12.18;;;6.43;;
22646;SDS011;11490;42.726;23.268;2023-03-07T02:55:57;9.07;;;5.40;;
22646;SDS011;11490;42.726;23.268;2023-03-07T02:58:22;8.18;;;4.93;;
22646;SDS011;11490;42.726;23.268;2023-03-07T03:00:47;8.55;;;5.63;;
22646;SDS011;11490;42.726;23.268;2023-03-07T03:03:13;10.75;;;6.10;;
22646;SDS011;11490;42.726;23.268;2023-03-07T03:05:38;14.77;;;6.90;;
22646;SDS011;11490;42.726;23.268;2023-03-07T03:08:04;23.95;;;10.10;;
22646;SDS011;11490;42.726;23.268;2023-03-07T03:10:30;19.02;;;8.18;;
22646;SDS011;11490;42.726;23.268;2023-03-07T03:12:55;10.93;;;6.47;;
22646;SDS011;11490;42.726;23.268;2023-03-07T03:15:21;22.17;;;9.70;;
22646;SDS011;11490;42.726;23.268;2023-03-07T03:17:46;8.82;;;5.35;;
22646;SDS011;11490;42.726;23.268;2023-03-07T03:20:12;11.15;;;5.68;;
22646;SDS011;11490;42.726;23.268;2023-03-07T03:22:40;16.58;;;9.23;;
22646;SDS011;11490;42.726;23.268;2023-03-07T03:25:07;20.15;;;9.63;;
22646;SDS011;11490;42.726;23.268;2023-03-07T03:27:35;18.52;;;10.02;;
22646;SDS011;11490;42.726;23.268;2023-03-07T03:30:02;18.20;;;7.50;;
22646;SDS011;11490;42.726;23.268;2023-03-07T03:32:31;14.10;;;6.20;;
22646;SDS011;11490;42.726;23.268;2023-03-07T03:34:57;12.73;;;6.78;;
22646;SDS011;11490;42.726;23.268;2023-03-07T03:37:23;11.20;;;6.47;;
22646;SDS011;11490;42.726;23.268;2023-03-07T03:39:48;11.75;;;6.00;;
22646;SDS011;11490;42.726;23.268;2023-03-07T03:42:13;13.98;;;6.15;;
22646;SDS011;11490;42.726;23.268;2023-03-07T03:44:42;10.38;;;5.50;;
22646;SDS011;11490;42.726;23.268;2023-03-07T03:47:07;6.78;;;5.28;;
22646;SDS011;11490;42.726;23.268;2023-03-07T03:49:33;5.78;;;3.97;;
22646;SDS011;11490;42.726;23.268;2023-03-07T03:51:58;6.28;;;4.13;;
22646;SDS011;11490;42.726;23.268;2023-03-07T03:54:24;7.75;;;5.13;;
22646;SDS011;11490;42.726;23.268;2023-03-07T03:56:50;7.70;;;5.03;;
22646;SDS011;11490;42.726;23.268;2023-03-07T03:59:17;12.07;;;6.05;;
22646;SDS011;11490;42.726;23.268;2023-03-07T04:01:42;9.75;;;6.13;;
22646;SDS011;11490;42.726;23.268;2023-03-07T04:04:08;10.60;;;5.30;;
22646;SDS011;11490;42.726;23.268;2023-03-07T04:06:33;9.43;;;5.13;;
22646;SDS011;11490;42.726;23.268;2023-03-07T04:08:59;6.32;;;4.38;;
22646;SDS011;11490;42.726;23.268;2023-03-07T04:11:27;7.80;;;4.82;;
22646;SDS011;11490;42.726;23.268;2023-03-07T04:13:52;9.30;;;5.30;;
22646;SDS011;11490;42.726;23.268;2023-03-07T04:16:18;6.35;;;4.75;;
22646;SDS011;11490;42.726;23.268;2023-03-07T04:18:44;6.72;;;4.55;;
22646;SDS011;11490;42.726;23.268;2023-03-07T04:21:09;8.05;;;5.28;;
22646;SDS011;11490;42.726;23.268;2023-03-07T04:23:35;10.35;;;5.70;;
22646;SDS011;11490;42.726;23.268;2023-03-07T04:26:01;9.05;;;5.05;;
22646;SDS011;11490;42.726;23.268;2023-03-07T04:28:29;5.75;;;4.10;;
22646;SDS011;11490;42.726;23.268;2023-03-07T04:31:09;11.32;;;4.90;;
22646;SDS011;11490;42.726;23.268;2023-03-07T04:36:14;6.40;;;4.15;;
22646;SDS011;11490;42.726;23.268;2023-03-07T04:38:40;8.68;;;5.20;;
22646;SDS011;11490;42.726;23.268;2023-03-07T04:41:06;8.90;;;4.38;;
22646;SDS011;11490;42.726;23.268;2023-03-07T04:43:34;9.35;;;6.10;;
22646;SDS011;11490;42.726;23.268;2023-03-07T04:46:00;9.35;;;6.72;;
22646;SDS011;11490;42.726;23.268;2023-03-07T04:48:25;12.93;;;7.03;;
22646;SDS011;11490;42.726;23.268;2023-03-07T04:50:51;9.63;;;6.75;;
22646;SDS011;11490;42.726;23.268;2023-03-07T04:53:16;9.38;;;6.35;;
22646;SDS011;11490;42.726;23.268;2023-03-07T04:55:43;9.50;;;5.50;;
22646;SDS011;11490;42.726;23.268;2023-03-07T04:58:08;11.27;;;6.68;;
22646;SDS011;11490;42.726;23.268;2023-03-07T05:00:37;12.40;;;6.80;;
22646;SDS011;11490;42.726;23.268;2023-03-07T05:03:07;8.20;;;4.78;;
22646;SDS011;11490;42.726;23.268;2023-03-07T05:05:33;11.68;;;7.07;;
22646;SDS011;11490;42.726;23.268;2023-03-07T05:07:59;40.63;;;19.10;;
22646;SDS011;11490;42.726;23.268;2023-03-07T05:10:25;48.97;;;23.05;;
22646;SDS011;11490;42.726;23.268;2023-03-07T05:12:50;29.95;;;13.55;;
22646;SDS011;11490;42.726;23.268;2023-03-07T05:15:16;18.77;;;9.57;;
22646;SDS011;11490;42.726;23.268;2023-03-07T05:17:41;18.02;;;8.63;;
22646;SDS011;11490;42.726;23.268;2023-03-07T05:20:07;18.67;;;8.20;;
22646;SDS011;11490;42.726;23.268;2023-03-07T05:22:34;11.25;;;7.47;;
22646;SDS011;11490;42.726;23.268;2023-03-07T05:25:00;9.82;;;6.90;;
22646;SDS011;11490;42.726;23.268;2023-03-07T05:27:27;10.55;;;7.32;;
22646;SDS011;11490;42.726;23.268;2023-03-07T05:29:52;16.23;;;8.70;;
22646;SDS011;11490;42.726;23.268;2023-03-07T05:32:18;20.63;;;8.93;;
22646;SDS011;11490;42.726;23.268;2023-03-07T05:34:44;28.33;;;9.43;;
22646;SDS011;11490;42.726;23.268;2023-03-07T05:37:11;16.35;;;8.50;;
22646;SDS011;11490;42.726;23.268;2023-03-07T05:39:36;15.90;;;9.75;;
22646;SDS011;11490;42.726;23.268;2023-03-07T05:42:02;13.02;;;7.95;;
22646;SDS011;11490;42.726;23.268;2023-03-07T05:44:28;18.58;;;8.13;;
22646;SDS011;11490;42.726;23.268;2023-03-07T05:46:53;13.60;;;8.25;;
22646;SDS011;11490;42.726;23.268;2023-03-07T05:49:19;11.80;;;7.85;;
22646;SDS011;11490;42.726;23.268;2023-03-07T05:51:44;11.85;;;7.47;;
22646;SDS011;11490;42.726;23.268;2023-03-07T05:54:10;10.55;;;6.95;;
22646;SDS011;11490;42.726;23.268;2023-03-07T05:56:35;13.05;;;8.23;;
22646;SDS011;11490;42.726;23.268;2023-03-07T05:59:01;12.80;;;7.55;;
22646;SDS011;11490;42.726;23.268;2023-03-07T06:01:27;10.95;;;6.47;;
22646;SDS011;11490;42.726;23.268;2023-03-07T06:03:52;13.20;;;7.15;;
22646;SDS011;11490;42.726;23.268;2023-03-07T06:06:18;12.88;;;7.95;;
22646;SDS011;11490;42.726;23.268;2023-03-07T06:08:43;12.93;;;7.75;;
22646;SDS011;11490;42.726;23.268;2023-03-07T06:11:08;13.75;;;6.15;;
22646;SDS011;11490;42.726;23.268;2023-03-07T06:13:34;13.18;;;7.35;;
22646;SDS011;11490;42.726;23.268;2023-03-07T06:16:00;10.77;;;7.68;;
22646;SDS011;11490;42.726;23.268;2023-03-07T06:18:25;14.80;;;8.57;;
22646;SDS011;11490;42.726;23.268;2023-03-07T06:20:58;11.65;;;7.63;;
22646;SDS011;11490;42.726;23.268;2023-03-07T06:23:31;18.35;;;10.25;;
22646;SDS011;11490;42.726;23.268;2023-03-07T06:25:58;15.75;;;8.45;;
22646;SDS011;11490;42.726;23.268;2023-03-07T06:28:31;15.10;;;7.93;;
22646;SDS011;11490;42.726;23.268;2023-03-07T06:30:57;16.73;;;8.68;;
22646;SDS011;11490;42.726;23.268;2023-03-07T06:33:22;21.05;;;11.15;;
22646;SDS011;11490;42.726;23.268;2023-03-07T06:35:47;19.90;;;12.20;;
22646;SDS011;11490;42.726;23.268;2023-03-07T06:38:13;13.70;;;8.32;;
22646;SDS011;11490;42.726;23.268;2023-03-07T06:40:40;16.85;;;7.55;;
22646;SDS011;11490;42.726;23.268;2023-03-07T06:43:06;12.43;;;8.70;;
22646;SDS011;11490;42.726;23.268;2023-03-07T06:45:31;27.05;;;9.40;;
22646;SDS011;11490;42.726;23.268;2023-03-07T06:47:57;14.63;;;9.82;;
22646;SDS011;11490;42.726;23.268;2023-03-07T06:50:22;18.85;;;8.40;;
22646;SDS011;11490;42.726;23.268;2023-03-07T06:52:48;13.35;;;8.95;;
22646;SDS011;11490;42.726;23.268;2023-03-07T06:55:15;20.00;;;8.90;;
22646;SDS011;11490;42.726;23.268;2023-03-07T06:57:42;22.38;;;13.07;;
22646;SDS011;11490;42.726;23.268;2023-03-07T07:00:08;19.50;;;10.45;;
22646;SDS011;11490;42.726;23.268;2023-03-07T07:02:35;18.13;;;8.00;;
22646;SDS011;11490;42.726;23.268;2023-03-07T07:05:00;15.00;;;7.97;;
22646;SDS011;11490;42.726;23.268;2023-03-07T07:07:27;28.83;;;13.80;;
22646;SDS011;11490;42.726;23.268;2023-03-07T07:09:52;30.92;;;13.23;;
22646;SDS011;11490;42.726;23.268;2023-03-07T07:12:18;18.52;;;8.40;;
22646;SDS011;11490;42.726;23.268;2023-03-07T07:14:43;14.73;;;8.43;;
22646;SDS011;11490;42.726;23.268;2023-03-07T07:17:10;49.40;;;23.55;;
22646;SDS011;11490;42.726;23.268;2023-03-07T07:19:36;37.17;;;20.55;;
22646;SDS011;11490;42.726;23.268;2023-03-07T07:22:01;17.30;;;8.77;;
22646;SDS011;11490;42.726;23.268;2023-03-07T07:24:26;13.85;;;8.13;;
22646;SDS011;11490;42.726;23.268;2023-03-07T07:26:52;11.07;;;6.63;;
22646;SDS011;11490;42.726;23.268;2023-03-07T07:29:17;21.60;;;11.32;;
22646;SDS011;11490;42.726;23.268;2023-03-07T07:31:43;9.65;;;5.60;;
22646;SDS011;11490;42.726;23.268;2023-03-07T07:34:08;9.40;;;5.15;;
22646;SDS011;11490;42.726;23.268;2023-03-07T07:36:34;6.68;;;4.60;;
22646;SDS011;11490;42.726;23.268;2023-03-07T07:39:03;7.10;;;4.35;;
22646;SDS011;11490;42.726;23.268;2023-03-07T07:41:30;7.30;;;4.53;;
22646;SDS011;11490;42.726;23.268;2023-03-07T07:43:56;10.10;;;5.28;;
22646;SDS011;11490;42.726;23.268;2023-03-07T07:46:21;8.18;;;5.72;;
22646;SDS011;11490;42.726;23.268;2023-03-07T07:48:47;12.70;;;7.40;;
22646;SDS011;11490;42.726;23.268;2023-03-07T07:51:16;15.60;;;7.50;;
22646;SDS011;11490;42.726;23.268;2023-03-07T07:53:44;16.55;;;6.45;;
22646;SDS011;11490;42.726;23.268;2023-03-07T07:56:10;13.13;;;7.25;;
22646;SDS011;11490;42.726;23.268;2023-03-07T07:58:36;11.13;;;7.13;;
22646;SDS011;11490;42.726;23.268;2023-03-07T08:01:10;10.73;;;6.78;;
22646;SDS011;11490;42.726;23.268;2023-03-07T08:03:40;14.45;;;7.82;;
22646;SDS011;11490;42.726;23.268;2023-03-07T08:06:05;13.82;;;6.63;;
22646;SDS011;11490;42.726;23.268;2023-03-07T08:08:30;14.68;;;8.85;;
22646;SDS011;11490;42.726;23.268;2023-03-07T08:10:56;18.50;;;9.77;;
22646;SDS011;11490;42.726;23.268;2023-03-07T08:13:22;15.95;;;8.82;;
22646;SDS011;11490;42.726;23.268;2023-03-07T08:15:47;23.50;;;8.57;;
22646;SDS011;11490;42.726;23.268;2023-03-07T08:18:12;16.35;;;7.93;;
22646;SDS011;11490;42.726;23.268;2023-03-07T08:20:38;14.40;;;7.85;;
22646;SDS011;11490;42.726;23.268;2023-03-07T08:23:05;15.05;;;8.35;;
22646;SDS011;11490;42.726;23.268;2023-03-07T08:25:36;12.93;;;7.18;;
22646;SDS011;11490;42.726;23.268;2023-03-07T08:28:01;14.35;;;8.07;;
22646;SDS011;11490;42.726;23.268;2023-03-07T08:30:29;22.58;;;8.15;;
22646;SDS011;11490;42.726;23.268;2023-03-07T08:32:56;10.10;;;7.15;;
22646;SDS011;11490;42.726;23.268;2023-03-07T08:35:22;12.10;;;7.75;;
22646;SDS011;11490;42.726;23.268;2023-03-07T08:37:52;15.68;;;9.07;;
22646;SDS011;11490;42.726;23.268;2023-03-07T08:40:19;48.65;;;22.02;;
22646;SDS011;11490;42.726;23.268;2023-03-07T08:42:45;20.27;;;10.02;;
22646;SDS011;11490;42.726;23.268;2023-03-07T08:45:11;21.20;;;10.68;;
22646;SDS011;11490;42.726;23.268;2023-03-07T08:47:36;16.70;;;7.20;;
22646;SDS011;11490;42.726;23.268;2023-03-07T08:50:14;7.88;;;5.78;;
22646;SDS011;11490;42.726;23.268;2023-03-07T08:52:41;13.45;;;6.20;;
22646;SDS011;11490;42.726;23.268;2023-03-07T08:55:07;8.02;;;4.72;;
22646;SDS011;11490;42.726;23.268;2023-03-07T08:57:33;7.95;;;4.72;;
22646;SDS011;11490;42.726;23.268;2023-03-07T08:59:58;6.55;;;3.83;;
22646;SDS011;11490;42.726;23.268;2023-03-07T09:02:28;8.88;;;3.90;;
22646;SDS011;11490;42.726;23.268;2023-03-07T09:04:57;6.60;;;4.22;;
22646;SDS011;11490;42.726;23.268;2023-03-07T09:07:22;8.00;;;4.40;;
22646;SDS011;11490;42.726;23.268;2023-03-07T09:09:48;8.75;;;3.83;;
22646;SDS011;11490;42.726;23.268;2023-03-07T09:12:13;7.18;;;4.28;;
22646;SDS011;11490;42.726;23.268;2023-03-07T09:14:38;7.55;;;3.75;;
22646;SDS011;11490;42.726;23.268;2023-03-07T09:17:04;6.03;;;3.78;;
22646;SDS011;11490;42.726;23.268;2023-03-07T09:19:29;5.90;;;2.80;;
22646;SDS011;11490;42.726;23.268;2023-03-07T09:21:55;6.75;;;3.92;;
22646;SDS011;11490;42.726;23.268;2023-03-07T09:24:20;16.17;;;4.22;;
22646;SDS011;11490;42.726;23.268;2023-03-07T09:26:46;3.90;;;2.60;;
22646;SDS011;11490;42.726;23.268;2023-03-07T09:29:11;4.20;;;2.88;;
22646;SDS011;11490;42.726;23.268;2023-03-07T09:31:39;7.97;;;3.78;;
22646;SDS011;11490;42.726;23.268;2023-03-07T09:34:08;5.13;;;2.63;;
22646;SDS011;11490;42.726;23.268;2023-03-07T09:36:34;4.53;;;2.80;;
22646;SDS011;11490;42.726;23.268;2023-03-07T09:39:05;6.68;;;3.40;;
22646;SDS011;11490;42.726;23.268;2023-03-07T09:41:47;5.60;;;2.60;;
22646;SDS011;11490;42.726;23.268;2023-03-07T09:53:00;4.40;;;3.20;;
22646;SDS011;11490;42.726;23.268;2023-03-07T09:55:28;3.67;;;2.25;;
22646;SDS011;11490;42.726;23.268;2023-03-07T09:57:58;3.45;;;2.25;;
22646;SDS011;11490;42.726;23.268;2023-03-07T10:08:50;11.05;;;2.20;;
22646;SDS011;11490;42.726;23.268;2023-03-07T10:11:20;5.43;;;1.80;;
22646;SDS011;11490;42.726;23.268;2023-03-07T10:16:30;4.60;;;1.75;;
22646;SDS011;11490;42.726;23.268;2023-03-07T10:19:37;2.42;;;1.98;;
22646;SDS011;11490;42.726;23.268;2023-03-07T10:22:21;2.40;;;1.45;;
22646;SDS011;11490;42.726;23.268;2023-03-07T10:28:32;2.80;;;1.90;;
22646;SDS011;11490;42.726;23.268;2023-03-07T10:33:42;1.92;;;1.33;;
22646;SDS011;11490;42.726;23.268;2023-03-07T10:38:51;9.52;;;2.20;;
22646;SDS011;11490;42.726;23.268;2023-03-07T10:41:19;4.60;;;2.22;;
22646;SDS011;11490;42.726;23.268;2023-03-07T10:43:45;4.40;;;2.28;;
22646;SDS011;11490;42.726;23.268;2023-03-07T10:46:15;4.25;;;2.65;;
22646;SDS011;11490;42.726;23.268;2023-03-07T10:49:06;1.73;;;1.40;;
22646;SDS011;11490;42.726;23.268;2023-03-07T10:54:07;2.78;;;1.85;;
22646;SDS011;11490;42.726;23.268;2023-03-07T10:56:38;1.77;;;1.45;;
22646;SDS011;11490;42.726;23.268;2023-03-07T11:01:33;2.53;;;1.77;;
22646;SDS011;11490;42.726;23.268;2023-03-07T11:04:04;3.20;;;2.08;;
22646;SDS011;11490;42.726;23.268;2023-03-07T11:06:36;2.70;;;1.63;;
22646;SDS011;11490;42.726;23.268;2023-03-07T11:09:09;2.42;;;1.52;;
22646;SDS011;11490;42.726;23.268;2023-03-07T11:11:40;5.25;;;2.92;;
22646;SDS011;11490;42.726;23.268;2023-03-07T11:14:13;3.85;;;2.03;;
22646;SDS011;11490;42.726;23.268;2023-03-07T11:16:40;4.13;;;2.17;;
22646;SDS011;11490;42.726;23.268;2023-03-07T11:19:31;2.50;;;1.52;;
22646;SDS011;11490;42.726;23.268;2023-03-07T11:21:58;2.17;;;1.45;;
22646;SDS011;11490;42.726;23.268;2023-03-07T11:26:52;3.70;;;2.30;;
22646;SDS011;11490;42.726;23.268;2023-03-07T11:29:18;7.72;;;2.88;;
22646;SDS011;11490;42.726;23.268;2023-03-07T11:34:48;3.03;;;2.30;;
22646;SDS011;11490;42.726;23.268;2023-03-07T11:37:33;4.22;;;2.42;;
22646;SDS011;11490;42.726;23.268;2023-03-07T11:51:00;3.25;;;1.90;;
22646;SDS011;11490;42.726;23.268;2023-03-07T11:56:39;2.97;;;2.15;;
22646;SDS011;11490;42.726;23.268;2023-03-07T12:05:29;2.30;;;1.60;;
22646;SDS011;11490;42.726;23.268;2023-03-07T12:24:08;2.65;;;1.38;;
22646;SDS011;11490;42.726;23.268;2023-03-07T12:26:56;2.22;;;1.55;;
22646;SDS011;11490;42.726;23.268;2023-03-07T12:31:53;3.95;;;2.33;;
22646;SDS011;11490;42.726;23.268;2023-03-07T12:37:12;2.53;;;1.80;;
22646;SDS011;11490;42.726;23.268;2023-03-07T12:39:53;3.95;;;2.80;;
22646;SDS011;11490;42.726;23.268;2023-03-07T12:42:30;4.88;;;2.35;;
22646;SDS011;11490;42.726;23.268;2023-03-07T13:01:44;2.42;;;1.55;;
22646;SDS011;11490;42.726;23.268;2023-03-07T13:04:17;5.88;;;2.50;;
22646;SDS011;11490;42.726;23.268;2023-03-07T13:06:47;4.50;;;1.85;;
22646;SDS011;11490;42.726;23.268;2023-03-07T13:09:23;2.42;;;1.55;;
22646;SDS011;11490;42.726;23.268;2023-03-07T13:14:47;1.58;;;1.17;;
22646;SDS011;11490;42.726;23.268;2023-03-07T13:19:54;2.92;;;1.70;;
22646;SDS011;11490;42.726;23.268;2023-03-07T13:24:55;2.20;;;1.60;;
22646;SDS011;11490;42.726;23.268;2023-03-07T13:53:15;1.73;;;1.38;;
22646;SDS011;11490;42.726;23.268;2023-03-07T14:04:03;2.55;;;1.70;;
22646;SDS011;11490;42.726;23.268;2023-03-07T14:09:14;10.68;;;2.53;;
22646;SDS011;11490;42.726;23.268;2023-03-07T14:26:10;3.45;;;1.98;;
22646;SDS011;11490;42.726;23.268;2023-03-07T14:28:50;4.97;;;1.80;;
22646;SDS011;11490;42.726;23.268;2023-03-07T14:31:25;4.28;;;1.85;;
22646;SDS011;11490;42.726;23.268;2023-03-07T14:33:55;1.90;;;1.48;;
22646;SDS011;11490;42.726;23.268;2023-03-07T14:36:26;2.30;;;1.50;;
22646;SDS011;11490;42.726;23.268;2023-03-07T14:38:59;4.10;;;1.80;;
22646;SDS011;11490;42.726;23.268;2023-03-07T14:50:39;4.03;;;2.92;;
22646;SDS011;11490;42.726;23.268;2023-03-07T14:53:13;3.13;;;2.10;;
22646;SDS011;11490;42.726;23.268;2023-03-07T14:55:46;2.38;;;1.80;;
22646;SDS011;11490;42.726;23.268;2023-03-07T14:58:18;3.78;;;1.65;;
22646;SDS011;11490;42.726;23.268;2023-03-07T15:01:01;2.55;;;1.67;;
22646;SDS011;11490;42.726;23.268;2023-03-07T15:03:29;1.50;;;1.40;;
22646;SDS011;11490;42.726;23.268;2023-03-07T15:05:55;2.20;;;1.70;;
22646;SDS011;11490;42.726;23.268;2023-03-07T15:19:04;4.43;;;2.42;;
22646;SDS011;11490;42.726;23.268;2023-03-07T15:21:39;6.95;;;2.83;;
22646;SDS011;11490;42.726;23.268;2023-03-07T15:24:15;3.78;;;1.70;;
22646;SDS011;11490;42.726;23.268;2023-03-07T15:26:51;2.95;;;2.05;;
22646;SDS011;11490;42.726;23.268;2023-03-07T15:29:20;1.98;;;1.73;;
22646;SDS011;11490;42.726;23.268;2023-03-07T15:32:05;2.10;;;1.60;;
22646;SDS011;11490;42.726;23.268;2023-03-07T15:34:57;1.60;;;1.50;;
22646;SDS011;11490;42.726;23.268;2023-03-07T15:37:26;3.30;;;2.08;;
22646;SDS011;11490;42.726;23.268;2023-03-07T15:42:20;3.30;;;2.20;;
22646;SDS011;11490;42.726;23.268;2023-03-07T15:44:53;4.10;;;2.15;;
22646;SDS011;11490;42.726;23.268;2023-03-07T15:47:21;4.38;;;2.13;;
22646;SDS011;11490;42.726;23.268;2023-03-07T15:49:49;2.78;;;1.75;;
22646;SDS011;11490;42.726;23.268;2023-03-07T15:55:05;4.65;;;2.22;;
22646;SDS011;11490;42.726;23.268;2023-03-07T15:57:49;4.30;;;1.95;;
22646;SDS011;11490;42.726;23.268;2023-03-07T16:00:18;3.58;;;2.10;;
22646;SDS011;11490;42.726;23.268;2023-03-07T16:02:50;3.35;;;2.13;;
22646;SDS011;11490;42.726;23.268;2023-03-07T16:07:47;7.03;;;2.35;;
22646;SDS011;11490;42.726;23.268;2023-03-07T16:10:16;3.00;;;2.42;;
22646;SDS011;11490;42.726;23.268;2023-03-07T16:12:42;4.07;;;1.90;;
22646;SDS011;11490;42.726;23.268;2023-03-07T16:15:14;4.18;;;2.10;;
22646;SDS011;11490;42.726;23.268;2023-03-07T16:17:41;6.15;;;4.22;;
22646;SDS011;11490;42.726;23.268;2023-03-07T16:20:16;2.72;;;2.10;;
22646;SDS011;11490;42.726;23.268;2023-03-07T16:22:45;3.05;;;2.38;;
22646;SDS011;11490;42.726;23.268;2023-03-07T16:25:11;4.72;;;3.05;;
22646;SDS011;11490;42.726;23.268;2023-03-07T16:27:38;6.53;;;4.40;;
22646;SDS011;11490;42.726;23.268;2023-03-07T16:30:09;3.45;;;2.60;;
22646;SDS011;11490;42.726;23.268;2023-03-07T16:32:37;7.25;;;3.00;;
22646;SDS011;11490;42.726;23.268;2023-03-07T16:35:09;5.57;;;2.72;;
22646;SDS011;11490;42.726;23.268;2023-03-07T16:37:38;5.72;;;2.90;;
22646;SDS011;11490;42.726;23.268;2023-03-07T16:40:04;4.07;;;2.97;;
22646;SDS011;11490;42.726;23.268;2023-03-07T16:42:32;5.03;;;2.95;;
22646;SDS011;11490;42.726;23.268;2023-03-07T16:44:58;3.00;;;2.25;;
22646;SDS011;11490;42.726;23.268;2023-03-07T16:47:23;4.35;;;2.58;;
22646;SDS011;11490;42.726;23.268;2023-03-07T16:49:49;4.90;;;2.95;;
22646;SDS011;11490;42.726;23.268;2023-03-07T16:52:15;5.65;;;2.42;;
22646;SDS011;11490;42.726;23.268;2023-03-07T16:54:40;2.13;;;1.63;;
22646;SDS011;11490;42.726;23.268;2023-03-07T16:57:10;3.35;;;2.53;;
22646;SDS011;11490;42.726;23.268;2023-03-07T16:59:38;6.90;;;2.50;;
22646;SDS011;11490;42.726;23.268;2023-03-07T17:02:12;10.43;;;2.70;;
22646;SDS011;11490;42.726;23.268;2023-03-07T17:04:39;11.07;;;4.25;;
22646;SDS011;11490;42.726;23.268;2023-03-07T17:07:10;3.75;;;2.63;;
22646;SDS011;11490;42.726;23.268;2023-03-07T17:09:39;5.30;;;3.08;;
22646;SDS011;11490;42.726;23.268;2023-03-07T17:12:05;6.75;;;2.30;;
22646;SDS011;11490;42.726;23.268;2023-03-07T17:14:33;4.95;;;2.63;;
22646;SDS011;11490;42.726;23.268;2023-03-07T17:16:59;4.85;;;2.47;;
22646;SDS011;11490;42.726;23.268;2023-03-07T17:19:28;5.40;;;3.20;;
22646;SDS011;11490;42.726;23.268;2023-03-07T17:21:56;3.53;;;2.58;;
22646;SDS011;11490;42.726;23.268;2023-03-07T17:24:23;3.95;;;2.38;;
22646;SDS011;11490;42.726;23.268;2023-03-07T17:26:50;4.22;;;2.30;;
22646;SDS011;11490;42.726;23.268;2023-03-07T17:29:25;3.80;;;2.55;;
22646;SDS011;11490;42.726;23.268;2023-03-07T17:32:03;6.00;;;2.85;;
22646;SDS011;11490;42.726;23.268;2023-03-07T17:34:31;3.60;;;2.95;;
22646;SDS011;11490;42.726;23.268;2023-03-07T17:36:57;5.95;;;2.90;;
22646;SDS011;11490;42.726;23.268;2023-03-07T17:39:24;3.25;;;2.45;;
22646;SDS011;11490;42.726;23.268;2023-03-07T17:41:51;7.03;;;2.45;;
22646;SDS011;11490;42.726;23.268;2023-03-07T17:44:19;5.18;;;3.55;;
22646;SDS011;11490;42.726;23.268;2023-03-07T17:46:44;3.72;;;2.35;;